Terminal Aerodrome Forecast
Issued by NWS

Home | Current Version | Previous Version | Text Only | Print | Product List | Glossary On
Versions: 1 2 3 4 5 6 7 8 9 10 11 12 13 14 15 16 17 18 19 20 21 22
847
FTUS43 KLOT 301503 AAB
TAFDPA
TAF AMD
KDPA 301503Z 3015/0112 04011G19KT 6SM -DZ BR SCT006 OVC008
      TEMPO 3015/3017 4SM -SHRADZ BR
     FM301800 05014G22KT P6SM VCSH SCT008 OVC012
     FM302200 05014G21KT 6SM -SHRA SCT009 OVC015
     FM010100 01009KT 3SM -SHRA OVC009
     FM010600 03009KT 5SM BR SCT007 BKN012=

USA.gov is the U.S. government's official web portal to all federal, state and local government web resources and services.